createdAt,value
2022-11-08T00:00:26.946Z,0.00
2022-11-08T00:01:26.987Z,0.00
2022-11-08T00:02:27.084Z,0.00
2022-11-08T00:03:26.897Z,0.00
2022-11-08T00:04:27.131Z,0.00
2022-11-08T00:05:26.871Z,0.00
2022-11-08T00:06:26.879Z,0.00
2022-11-08T00:07:26.844Z,0.00
2022-11-08T00:08:26.859Z,0.00
2022-11-08T00:09:26.873Z,0.00
2022-11-08T00:10:26.815Z,0.00
2022-11-08T00:11:26.796Z,0.00
2022-11-08T00:12:26.790Z,0.00
2022-11-08T00:13:26.782Z,0.00
2022-11-08T00:14:26.773Z,0.00
2022-11-08T00:15:26.753Z,0.00
2022-11-08T00:16:26.735Z,0.00
2022-11-08T00:17:26.729Z,0.00
2022-11-08T00:18:26.759Z,0.00
2022-11-08T00:19:26.690Z,0.00
2022-11-08T00:20:26.697Z,0.00
2022-11-08T00:21:26.689Z,0.00
2022-11-08T00:22:26.667Z,0.00
2022-11-08T00:23:26.663Z,0.00
2022-11-08T00:24:26.630Z,0.00
2022-11-08T00:25:26.613Z,0.00
2022-11-08T00:26:26.631Z,0.00
2022-11-08T00:27:26.601Z,0.00
2022-11-08T00:28:26.599Z,0.00
2022-11-08T00:29:26.565Z,0.00
2022-11-08T00:30:26.578Z,0.00
2022-11-08T00:31:27.542Z,0.00
2022-11-08T00:32:26.580Z,0.00
2022-11-08T00:33:26.519Z,0.00
2022-11-08T00:34:26.502Z,0.00
2022-11-08T00:35:26.500Z,0.00
2022-11-08T00:36:26.484Z,0.00
2022-11-08T00:37:26.462Z,0.00
2022-11-08T00:38:26.501Z,0.00
2022-11-08T00:39:26.440Z,0.00
2022-11-08T00:40:26.431Z,0.00
2022-11-08T00:41:26.414Z,0.00
2022-11-08T00:42:26.407Z,0.00
2022-11-08T00:43:26.404Z,0.00
2022-11-08T00:44:26.819Z,0.00
2022-11-08T00:45:26.371Z,0.00
2022-11-08T00:46:26.366Z,0.00
2022-11-08T00:47:26.358Z,0.00
2022-11-08T00:48:26.339Z,0.00
2022-11-08T00:49:26.331Z,0.00
2022-11-08T00:50:26.306Z,0.00
2022-11-08T00:51:26.315Z,0.00
2022-11-08T00:52:26.282Z,0.00
2022-11-08T00:53:26.266Z,0.00
2022-11-08T00:54:26.352Z,0.00
2022-11-08T00:55:26.248Z,0.00
2022-11-08T00:56:26.231Z,0.00
2022-11-08T00:57:41.265Z,0.00
2022-11-08T00:58:27.726Z,0.00
2022-11-08T00:59:26.195Z,0.00
2022-11-08T01:00:26.175Z,0.00
2022-11-08T01:01:26.420Z,0.00
2022-11-08T01:02:26.283Z,0.00
2022-11-08T01:03:26.146Z,0.00
2022-11-08T01:04:26.128Z,0.00
2022-11-08T01:05:26.110Z,0.00
2022-11-08T01:06:26.115Z,0.00
2022-11-08T01:07:26.105Z,0.00
2022-11-08T01:08:26.084Z,0.00
2022-11-08T01:09:26.067Z,0.00
2022-11-08T01:10:26.057Z,0.00
2022-11-08T01:11:26.032Z,0.00
2022-11-08T01:12:26.028Z,0.00
2022-11-08T01:13:26.084Z,0.00
2022-11-08T01:14:26.002Z,0.00
2022-11-08T01:15:26.022Z,0.00
2022-11-08T01:16:25.998Z,0.00
2022-11-08T01:17:25.960Z,0.00
2022-11-08T01:18:25.978Z,0.00
2022-11-08T01:19:25.956Z,0.00
2022-11-08T01:20:25.928Z,0.00
2022-11-08T01:21:25.915Z,0.00
2022-11-08T01:22:25.956Z,0.00
2022-11-08T01:23:25.944Z,0.00
2022-11-08T01:24:25.875Z,0.00
2022-11-08T01:25:25.876Z,0.00
2022-11-08T01:26:25.862Z,0.00
2022-11-08T01:27:25.835Z,0.00
2022-11-08T01:28:25.816Z,0.00
2022-11-08T01:29:25.824Z,0.00
2022-11-08T01:30:25.794Z,0.00
2022-11-08T01:31:25.796Z,0.00
2022-11-08T01:32:25.767Z,0.00
2022-11-08T01:33:25.962Z,0.00
2022-11-08T01:34:25.754Z,0.00
2022-11-08T01:35:25.937Z,0.00
2022-11-08T01:36:27.370Z,0.00
2022-11-08T01:37:25.732Z,0.00
2022-11-08T01:38:25.740Z,0.00
2022-11-08T01:39:25.688Z,0.00
2022-11-08T01:40:25.670Z,0.00
2022-11-08T01:41:25.680Z,0.00
2022-11-08T01:42:25.646Z,0.00
2022-11-08T01:43:26.263Z,0.00
2022-11-08T01:44:25.628Z,0.00
2022-11-08T01:45:25.625Z,0.00
2022-11-08T01:46:25.606Z,0.00
2022-11-08T01:47:25.577Z,0.00
2022-11-08T01:48:25.620Z,0.00
2022-11-08T01:49:25.569Z,0.00
2022-11-08T01:50:25.545Z,0.00
2022-11-08T01:51:25.550Z,0.00
2022-11-08T01:52:25.521Z,0.00
2022-11-08T01:53:25.525Z,0.00
2022-11-08T01:54:25.573Z,0.00
2022-11-08T01:55:25.491Z,0.00
2022-11-08T01:56:25.472Z,0.00
2022-11-08T01:57:25.465Z,0.00
2022-11-08T01:58:25.481Z,0.00
2022-11-08T01:59:25.451Z,0.00
2022-11-08T02:00:25.427Z,0.00
2022-11-08T02:01:25.580Z,0.00
2022-11-08T02:02:25.469Z,0.00
2022-11-08T02:03:25.427Z,0.00
2022-11-08T02:04:25.424Z,0.00
2022-11-08T02:05:25.374Z,0.00
2022-11-08T02:06:25.345Z,0.00
2022-11-08T02:07:25.341Z,0.00
2022-11-08T02:08:25.311Z,0.00
2022-11-08T02:09:25.352Z,0.00
2022-11-08T02:10:25.314Z,0.00
2022-11-08T02:11:25.306Z,0.00
2022-11-08T02:12:25.268Z,0.00
2022-11-08T02:13:25.275Z,0.00
2022-11-08T02:14:25.241Z,0.00
2022-11-08T02:15:25.253Z,0.00
2022-11-08T02:16:25.240Z,0.00
2022-11-08T02:17:25.212Z,0.00
2022-11-08T02:18:25.196Z,0.00
2022-11-08T02:19:25.189Z,0.00
2022-11-08T02:20:25.170Z,0.00
2022-11-08T02:21:25.157Z,0.00
2022-11-08T02:22:25.140Z,0.00
2022-11-08T02:23:25.625Z,0.00
2022-11-08T02:24:25.111Z,0.00
2022-11-08T02:25:25.126Z,0.00
2022-11-08T02:26:25.095Z,0.00
2022-11-08T02:27:25.185Z,0.00
2022-11-08T02:28:25.264Z,0.00
2022-11-08T02:29:25.046Z,0.00
2022-11-08T02:30:25.120Z,0.00
2022-11-08T02:31:25.046Z,0.00
2022-11-08T02:32:25.109Z,0.00
2022-11-08T02:33:25.057Z,0.00
2022-11-08T02:34:25.189Z,0.00
2022-11-08T02:35:24.982Z,0.00
2022-11-08T02:36:25.060Z,0.00
2022-11-08T02:37:24.998Z,0.00
2022-11-08T02:38:24.943Z,0.00
2022-11-08T02:39:25.781Z,0.00
2022-11-08T02:40:24.918Z,0.00
2022-11-08T02:41:24.919Z,0.00
2022-11-08T02:42:25.111Z,0.00
2022-11-08T02:43:24.961Z,0.00
2022-11-08T02:44:24.868Z,0.00
2022-11-08T02:45:24.876Z,0.00
2022-11-08T02:46:24.868Z,0.00
2022-11-08T02:47:24.843Z,0.00
2022-11-08T02:48:24.854Z,0.00
2022-11-08T02:49:24.830Z,0.00
2022-11-08T02:50:24.788Z,0.00
2022-11-08T02:51:24.792Z,0.00
2022-11-08T02:52:24.816Z,0.00
2022-11-08T02:53:24.747Z,0.00
2022-11-08T02:54:24.802Z,0.00
2022-11-08T02:55:24.766Z,0.00
2022-11-08T02:56:24.730Z,0.00
2022-11-08T02:57:24.716Z,0.00
2022-11-08T02:58:24.697Z,0.00
2022-11-08T02:59:24.670Z,0.00
2022-11-08T03:00:24.702Z,0.00
2022-11-08T03:01:24.818Z,0.00
2022-11-08T03:02:24.815Z,0.00
2022-11-08T03:03:24.650Z,0.00
2022-11-08T03:04:24.642Z,0.00
2022-11-08T03:05:24.633Z,0.00
2022-11-08T03:06:24.582Z,0.00
2022-11-08T03:07:25.117Z,0.00
2022-11-08T03:08:24.576Z,0.00
2022-11-08T03:09:24.568Z,0.00
2022-11-08T03:10:24.651Z,0.00
2022-11-08T03:11:24.517Z,0.00
2022-11-08T03:12:24.520Z,0.00
2022-11-08T03:13:24.509Z,0.00
2022-11-08T03:14:24.483Z,0.00
2022-11-08T03:15:24.577Z,0.00
2022-11-08T03:16:24.473Z,0.00
2022-11-08T03:17:24.476Z,0.00
2022-11-08T03:18:24.459Z,0.00
2022-11-08T03:19:24.467Z,0.00
2022-11-08T03:20:27.230Z,0.00
2022-11-08T03:21:24.419Z,0.00
2022-11-08T03:22:24.419Z,0.00
2022-11-08T03:23:24.382Z,0.00
2022-11-08T03:24:24.384Z,0.00
2022-11-08T03:25:24.470Z,0.00
2022-11-08T03:26:24.338Z,0.00
2022-11-08T03:27:24.338Z,0.00
2022-11-08T03:28:24.650Z,0.00
2022-11-08T03:29:24.331Z,0.00
2022-11-08T03:30:24.350Z,0.00
2022-11-08T03:31:24.281Z,0.00
2022-11-08T03:32:24.421Z,0.00
2022-11-08T03:33:24.265Z,0.00
2022-11-08T03:34:24.470Z,0.00
2022-11-08T03:35:24.218Z,0.00
2022-11-08T03:36:24.211Z,0.00
2022-11-08T03:37:24.282Z,0.00
2022-11-08T03:38:24.179Z,0.00
2022-11-08T03:39:24.185Z,0.00
2022-11-08T03:40:24.167Z,0.00
2022-11-08T03:41:24.154Z,0.00
2022-11-08T03:42:24.125Z,0.00
2022-11-08T03:43:24.177Z,0.00
2022-11-08T03:44:24.169Z,0.00
2022-11-08T03:45:24.099Z,0.00
2022-11-08T03:46:24.099Z,0.00
2022-11-08T03:47:24.080Z,0.00
2022-11-08T03:48:24.368Z,0.00
2022-11-08T03:49:24.050Z,0.00
2022-11-08T03:50:24.061Z,0.00
2022-11-08T03:51:24.031Z,0.00
2022-11-08T03:52:24.022Z,0.00
2022-11-08T03:53:23.996Z,0.00
2022-11-08T03:54:23.986Z,0.00
2022-11-08T03:55:24.000Z,0.00
2022-11-08T03:56:24.002Z,0.00
2022-11-08T03:57:23.983Z,0.00
2022-11-08T03:58:23.923Z,0.00
2022-11-08T03:59:23.966Z,0.00
2022-11-08T04:00:23.903Z,0.00
2022-11-08T04:01:24.129Z,0.00
2022-11-08T04:02:24.172Z,0.00
2022-11-08T04:03:23.871Z,0.00
2022-11-08T04:04:24.097Z,0.00
2022-11-08T04:05:23.949Z,0.00
2022-11-08T04:06:23.833Z,0.00
2022-11-08T04:07:23.865Z,0.00
2022-11-08T04:08:23.809Z,0.00
2022-11-08T04:09:23.793Z,0.00
2022-11-08T04:10:23.775Z,0.00
2022-11-08T04:11:23.772Z,0.00
2022-11-08T04:12:23.749Z,0.00
2022-11-08T04:13:23.820Z,0.00
2022-11-08T04:14:23.737Z,0.00
2022-11-08T04:15:23.709Z,0.00
2022-11-08T04:16:23.772Z,0.00
2022-11-08T04:17:23.705Z,0.00
2022-11-08T04:18:23.670Z,0.00
2022-11-08T04:19:23.711Z,0.00
2022-11-08T04:20:23.910Z,0.00
2022-11-08T04:21:23.632Z,0.00
2022-11-08T04:22:23.654Z,0.00
2022-11-08T04:23:23.611Z,0.00
2022-11-08T04:24:23.721Z,0.00
2022-11-08T04:25:23.611Z,0.00
2022-11-08T04:26:25.324Z,0.00
2022-11-08T04:27:23.795Z,0.00
2022-11-08T04:28:22.552Z,0.00
2022-11-08T04:29:23.573Z,0.00
2022-11-08T04:30:23.567Z,0.00
2022-11-08T04:31:23.542Z,0.00
2022-11-08T04:32:23.505Z,0.00
2022-11-08T04:33:23.478Z,0.00
2022-11-08T04:34:23.698Z,0.00
2022-11-08T04:35:23.467Z,0.00
2022-11-08T04:36:23.465Z,0.00
2022-11-08T04:37:23.436Z,0.00
2022-11-08T04:38:23.525Z,0.00
2022-11-08T04:39:23.431Z,0.00
2022-11-08T04:40:23.387Z,0.00
2022-11-08T04:41:23.398Z,0.00
2022-11-08T04:42:23.365Z,0.00
2022-11-08T04:43:23.367Z,0.00
2022-11-08T04:44:23.335Z,0.00
2022-11-08T04:45:23.502Z,0.00
2022-11-08T04:46:23.361Z,0.00
2022-11-08T04:47:23.320Z,0.00
2022-11-08T04:48:23.334Z,0.00
2022-11-08T04:49:23.514Z,0.00
2022-11-08T04:50:23.278Z,0.00
2022-11-08T04:51:23.255Z,0.00
2022-11-08T04:52:23.251Z,0.00
2022-11-08T04:53:23.234Z,0.00
2022-11-08T04:54:23.217Z,0.00
2022-11-08T04:55:23.226Z,0.00
2022-11-08T04:56:23.191Z,0.00
2022-11-08T04:57:23.195Z,0.00
2022-11-08T04:58:23.166Z,0.00
2022-11-08T04:59:23.153Z,0.00
2022-11-08T05:00:23.137Z,0.00
2022-11-08T05:01:23.331Z,0.00
2022-11-08T05:02:23.296Z,0.00
2022-11-08T05:03:23.098Z,0.00
2022-11-08T05:04:23.105Z,0.00
2022-11-08T05:05:23.070Z,0.00
2022-11-08T05:06:23.054Z,0.00
2022-11-08T05:07:23.100Z,0.00
2022-11-08T05:08:23.063Z,0.00
2022-11-08T05:09:23.059Z,0.00
2022-11-08T05:10:23.254Z,0.00
2022-11-08T05:11:22.993Z,0.00
2022-11-08T05:12:22.985Z,0.00
2022-11-08T05:13:22.992Z,0.00
2022-11-08T05:14:23.581Z,0.00
2022-11-08T05:15:22.946Z,0.00
2022-11-08T05:16:22.932Z,0.00
2022-11-08T05:17:22.931Z,0.00
2022-11-08T05:18:22.917Z,0.00
2022-11-08T05:19:22.943Z,0.00
2022-11-08T05:20:22.896Z,0.00
2022-11-08T05:21:22.863Z,0.00
2022-11-08T05:22:22.852Z,0.00
2022-11-08T05:23:22.901Z,0.00
2022-11-08T05:24:22.835Z,0.00
2022-11-08T05:25:22.855Z,0.00
2022-11-08T05:26:22.797Z,0.00
2022-11-08T05:27:22.868Z,0.00
2022-11-08T05:28:22.785Z,0.00
2022-11-08T05:29:22.783Z,0.00
2022-11-08T05:30:22.756Z,0.00
2022-11-08T05:31:22.750Z,0.00
2022-11-08T05:32:22.730Z,0.00
2022-11-08T05:33:22.732Z,0.00
2022-11-08T05:34:22.706Z,0.00
2022-11-08T05:35:22.691Z,0.00
2022-11-08T05:36:22.700Z,0.00
2022-11-08T05:37:22.740Z,0.00
2022-11-08T05:38:22.651Z,0.00
2022-11-08T05:39:22.640Z,0.00
2022-11-08T05:40:22.926Z,0.00
2022-11-08T05:41:22.611Z,0.00
2022-11-08T05:42:22.635Z,0.00
2022-11-08T05:43:22.593Z,0.00
2022-11-08T05:44:22.575Z,0.00
2022-11-08T05:45:22.586Z,0.00
2022-11-08T05:46:22.548Z,0.00
2022-11-08T05:47:22.581Z,0.00
2022-11-08T05:48:22.522Z,0.00
2022-11-08T05:49:22.524Z,0.00
2022-11-08T05:50:22.494Z,0.00
2022-11-08T05:51:22.526Z,0.00
2022-11-08T05:52:22.485Z,0.00
2022-11-08T05:53:22.469Z,0.00
2022-11-08T05:54:22.524Z,0.00
2022-11-08T05:55:22.413Z,1.00
2022-11-08T05:56:22.398Z,1.00
2022-11-08T05:57:22.437Z,0.00
2022-11-08T05:58:22.410Z,0.00
2022-11-08T05:59:22.351Z,2.00
2022-11-08T06:00:22.415Z,1.00
2022-11-08T06:01:22.335Z,1.00
2022-11-08T06:02:22.463Z,0.00
2022-11-08T06:03:23.717Z,4.00
2022-11-08T06:04:22.270Z,3.00
2022-11-08T06:05:22.259Z,6.00
2022-11-08T06:06:22.253Z,3.00
2022-11-08T06:07:22.288Z,3.00
2022-11-08T06:08:22.230Z,2.00
2022-11-08T06:09:22.247Z,8.00
2022-11-08T06:10:22.193Z,8.00
2022-11-08T06:11:22.193Z,11.00
2022-11-08T06:12:22.171Z,11.00
2022-11-08T06:13:22.219Z,11.00
2022-11-08T06:14:22.158Z,12.00
2022-11-08T06:15:22.129Z,12.00
2022-11-08T06:16:22.159Z,12.00
2022-11-08T06:17:26.311Z,15.00
2022-11-08T06:18:22.105Z,20.00
2022-11-08T06:19:22.112Z,26.00
2022-11-08T06:20:22.076Z,31.00
2022-11-08T06:21:22.072Z,36.00
2022-11-08T06:22:22.102Z,45.00
2022-11-08T06:23:22.033Z,70.00
2022-11-08T06:24:22.019Z,80.00
2022-11-08T06:25:22.042Z,84.00
2022-11-08T06:26:22.010Z,87.00
2022-11-08T06:27:21.979Z,96.00
2022-11-08T06:28:21.964Z,119.00
2022-11-08T06:29:21.980Z,146.00
2022-11-08T06:30:21.959Z,182.00
2022-11-08T06:31:21.943Z,206.00
2022-11-08T06:32:23.020Z,222.00
2022-11-08T06:33:21.246Z,249.00
2022-11-08T06:34:21.965Z,295.00
2022-11-08T06:35:21.878Z,326.00
2022-11-08T06:36:21.906Z,351.00
2022-11-08T06:37:21.880Z,380.00
2022-11-08T06:38:21.890Z,407.00
2022-11-08T06:39:26.072Z,438.00
2022-11-08T06:40:21.817Z,476.00
2022-11-08T06:41:21.804Z,527.00
2022-11-08T06:42:21.811Z,585.00
2022-11-08T06:43:22.330Z,650.00
2022-11-08T06:44:21.792Z,709.00
2022-11-08T06:45:21.765Z,766.00
2022-11-08T06:46:21.754Z,813.00
2022-11-08T06:47:21.731Z,855.00
2022-11-08T06:48:21.737Z,905.00
2022-11-08T06:49:21.714Z,967.00
2022-11-08T06:50:21.685Z,1017.00
2022-11-08T06:51:21.714Z,1112.00
2022-11-08T06:52:21.659Z,1154.00
2022-11-08T06:53:21.946Z,1302.00
2022-11-08T06:54:25.790Z,1273.00
2022-11-08T06:55:21.669Z,1343.00
2022-11-08T06:56:21.617Z,1401.00
2022-11-08T06:57:21.603Z,1527.00
2022-11-08T06:58:21.630Z,1791.00
2022-11-08T06:59:21.599Z,1769.00
2022-11-08T07:00:21.559Z,1865.00
2022-11-08T07:01:21.670Z,2079.00
2022-11-08T07:02:21.699Z,2019.00
2022-11-08T07:03:21.825Z,2079.00
2022-11-08T07:04:21.508Z,2394.00
2022-11-08T07:05:21.495Z,2772.00
2022-11-08T07:06:21.497Z,2625.00
2022-11-08T07:07:21.520Z,3264.00
2022-11-08T07:08:24.025Z,2957.00
2022-11-08T07:09:21.451Z,2988.00
2022-11-08T07:10:21.461Z,3225.00
2022-11-08T07:11:21.427Z,3381.00
2022-11-08T07:12:21.416Z,2918.00
2022-11-08T07:13:21.751Z,2576.00
2022-11-08T07:14:21.383Z,4120.00
2022-11-08T07:15:21.412Z,4811.00
2022-11-08T07:16:21.380Z,5430.00
2022-11-08T07:17:21.359Z,6362.00
2022-11-08T07:18:21.388Z,5688.00
2022-11-08T07:19:21.365Z,5036.00
2022-11-08T07:20:21.305Z,5286.00
2022-11-08T07:21:21.319Z,5382.00
2022-11-08T07:22:21.319Z,5932.00
2022-11-08T07:23:21.693Z,5320.00
2022-11-08T07:24:21.253Z,5444.00
2022-11-08T07:25:21.267Z,5082.00
2022-11-08T07:26:21.286Z,4611.00
2022-11-08T07:27:21.225Z,5199.00
2022-11-08T07:28:21.221Z,4462.00
2022-11-08T07:29:21.190Z,5002.00
2022-11-08T07:30:21.227Z,5263.00
2022-11-08T07:31:21.210Z,5140.00
2022-11-08T07:32:21.220Z,5137.00
2022-11-08T07:33:21.739Z,5411.00
2022-11-08T07:34:21.139Z,5933.00
2022-11-08T07:35:21.122Z,6418.00
2022-11-08T07:36:21.133Z,5649.00
2022-11-08T07:37:21.133Z,6357.00
2022-11-08T07:38:21.081Z,6431.00
2022-11-08T07:39:21.086Z,6236.00
2022-11-08T07:40:21.060Z,6435.00
2022-11-08T07:41:21.055Z,6802.00
2022-11-08T07:42:21.047Z,6928.00
2022-11-08T07:43:21.104Z,7019.00
2022-11-08T07:44:21.013Z,6879.00
2022-11-08T07:45:21.013Z,7033.00
2022-11-08T07:46:20.987Z,7414.00
2022-11-08T07:47:20.976Z,7569.00
2022-11-08T07:48:20.958Z,6846.00
2022-11-08T07:49:20.990Z,7270.00
2022-11-08T07:50:20.956Z,7531.00
2022-11-08T07:51:20.933Z,7788.00
2022-11-08T07:52:20.927Z,7417.00
2022-11-08T07:53:21.104Z,7409.00
2022-11-08T07:54:20.876Z,7485.00
2022-11-08T07:55:20.904Z,7373.00
2022-11-08T07:56:20.968Z,7985.00
2022-11-08T07:57:20.839Z,8000.00
2022-11-08T07:58:20.915Z,8097.00
2022-11-08T07:59:20.821Z,7952.00
2022-11-08T08:00:20.822Z,8821.00
2022-11-08T08:01:20.894Z,8017.00
2022-11-08T08:02:20.908Z,8503.00
2022-11-08T08:03:21.342Z,8806.00
2022-11-08T08:04:20.761Z,8875.00
2022-11-08T08:05:20.746Z,8982.00
2022-11-08T08:06:20.749Z,9235.00
2022-11-08T08:07:20.755Z,9068.00
2022-11-08T08:08:20.714Z,8257.00
2022-11-08T08:09:20.695Z,8507.00
2022-11-08T08:10:20.706Z,9470.00
2022-11-08T08:11:20.671Z,10544.00
2022-11-08T08:12:20.661Z,9964.00
2022-11-08T08:13:21.143Z,10464.00
2022-11-08T08:14:20.762Z,10625.00
2022-11-08T08:15:20.669Z,11445.00
2022-11-08T08:16:20.621Z,11020.00
2022-11-08T08:17:20.676Z,11109.00
2022-11-08T08:18:20.575Z,11163.00
2022-11-08T08:19:20.633Z,11708.00
2022-11-08T08:20:20.550Z,12777.00
2022-11-08T08:21:20.543Z,13513.00
2022-11-08T08:22:20.551Z,13184.00
2022-11-08T08:23:20.948Z,12935.00
2022-11-08T08:24:20.500Z,12422.00
2022-11-08T08:25:20.540Z,12456.00
2022-11-08T08:26:20.500Z,11587.00
2022-11-08T08:27:20.457Z,12448.00
2022-11-08T08:28:20.451Z,13149.00
2022-11-08T08:29:20.712Z,13257.00
2022-11-08T08:30:20.430Z,13777.00
2022-11-08T08:31:20.449Z,13082.00
2022-11-08T08:32:20.409Z,15169.00
2022-11-08T08:33:29.071Z,15567.00
2022-11-08T08:34:20.378Z,16171.00
2022-11-08T08:35:20.379Z,16051.00
2022-11-08T08:36:20.348Z,15440.00
2022-11-08T08:37:20.355Z,15593.00
2022-11-08T08:38:20.354Z,15122.00
2022-11-08T08:39:20.323Z,14155.00
2022-11-08T08:40:20.331Z,15796.00
2022-11-08T08:41:20.301Z,13635.00
2022-11-08T08:42:20.284Z,10759.00
2022-11-08T08:43:20.850Z,14757.00
2022-11-08T08:44:21.164Z,16361.00
2022-11-08T08:45:20.240Z,13872.00
2022-11-08T08:46:20.236Z,9928.00
2022-11-08T08:47:20.251Z,11582.00
2022-11-08T08:48:20.332Z,12492.00
2022-11-08T08:49:20.216Z,15449.00
2022-11-08T08:50:20.195Z,12909.00
2022-11-08T08:51:20.166Z,13460.00
2022-11-08T08:52:20.153Z,16418.00
2022-11-08T08:53:20.609Z,14638.00
2022-11-08T08:54:20.153Z,13935.00
2022-11-08T08:55:20.135Z,13641.00
2022-11-08T08:56:20.117Z,12764.00
2022-11-08T08:57:20.101Z,15027.00
2022-11-08T08:58:20.108Z,11679.00
2022-11-08T09:02:20.033Z,10962.00
2022-11-08T09:03:20.484Z,11201.00
2022-11-08T09:04:20.030Z,11172.00
2022-11-08T09:05:20.019Z,11199.00
2022-11-08T09:06:19.969Z,12027.00
2022-11-08T09:07:20.059Z,10258.00
2022-11-08T09:08:19.973Z,12689.00
2022-11-08T09:09:20.978Z,13319.00
2022-11-08T09:10:19.920Z,13384.00
2022-11-08T09:11:19.904Z,13266.00
2022-11-08T09:12:19.899Z,12966.00
2022-11-08T09:13:20.244Z,12087.00
2022-11-08T09:14:19.892Z,13529.00
2022-11-08T09:15:19.897Z,13748.00
2022-11-08T09:16:19.869Z,13193.00
2022-11-08T09:17:19.835Z,13214.00
2022-11-08T09:18:19.911Z,13511.00
2022-11-08T09:19:19.834Z,12489.00
2022-11-08T09:20:19.812Z,13364.00
2022-11-08T09:21:19.821Z,13340.00
2022-11-08T09:22:19.768Z,13673.00
2022-11-08T09:23:20.244Z,13022.00
2022-11-08T09:24:19.771Z,13931.00
2022-11-08T09:25:19.750Z,13502.00
2022-11-08T09:26:19.722Z,13464.00
2022-11-08T09:27:19.731Z,13044.00
2022-11-08T09:28:19.692Z,13429.00
2022-11-08T09:29:19.695Z,13340.00
2022-11-08T09:30:19.676Z,13285.00
2022-11-08T09:31:19.705Z,12954.00
2022-11-08T09:32:33.415Z,13416.00
2022-11-08T09:33:20.039Z,14141.00
2022-11-08T09:34:21.710Z,14068.00
2022-11-08T09:35:19.606Z,13823.00
2022-11-08T09:36:19.608Z,12660.00
2022-11-08T09:37:19.614Z,12374.00
2022-11-08T09:38:19.841Z,12701.00
2022-11-08T09:39:19.566Z,12935.00
2022-11-08T09:40:19.573Z,12794.00
2022-11-08T09:41:19.535Z,13697.00
2022-11-08T09:42:19.526Z,13798.00
2022-11-08T09:43:20.027Z,14330.00
2022-11-08T09:44:19.495Z,14447.00
2022-11-08T09:45:19.477Z,14694.00
2022-11-08T09:46:19.469Z,14094.00
2022-11-08T09:47:19.504Z,14623.00
2022-11-08T09:48:19.473Z,14596.00
2022-11-08T09:49:19.460Z,14639.00
2022-11-08T09:50:19.424Z,14580.00
2022-11-08T09:51:19.434Z,14928.00
2022-11-08T09:52:19.406Z,14454.00
2022-11-08T09:53:19.632Z,14595.00
2022-11-08T09:54:19.773Z,14553.00
2022-11-08T09:55:19.704Z,13234.00
2022-11-08T09:56:19.351Z,13532.00
2022-11-08T09:57:19.350Z,13788.00
2022-11-08T09:58:20.230Z,13912.00
2022-11-08T09:59:19.296Z,14061.00
2022-11-08T10:00:25.842Z,13309.00
2022-11-08T10:01:23.279Z,13575.00
2022-11-08T10:02:19.438Z,13123.00
2022-11-08T10:03:19.779Z,12829.00
2022-11-08T10:04:19.252Z,13357.00
2022-11-08T10:05:19.268Z,13284.00
2022-11-08T10:06:19.273Z,13079.00
2022-11-08T10:07:19.229Z,12875.00
2022-11-08T10:08:19.190Z,13390.00
2022-11-08T10:09:19.219Z,14541.00
2022-11-08T10:10:21.674Z,14317.00
2022-11-08T10:11:19.162Z,15107.00
2022-11-08T10:12:19.164Z,13232.00
2022-11-08T10:13:19.645Z,12846.00
2022-11-08T10:14:19.117Z,12252.00
2022-11-08T10:15:19.123Z,12045.00
2022-11-08T10:16:19.434Z,11962.00
2022-11-08T10:17:19.095Z,11812.00
2022-11-08T10:18:19.105Z,11774.00
2022-11-08T10:19:19.075Z,11741.00
2022-11-08T10:20:19.094Z,11719.00
2022-11-08T10:21:19.055Z,12424.00
2022-11-08T10:22:19.010Z,12217.00
2022-11-08T10:23:19.316Z,11976.00
2022-11-08T10:24:19.012Z,11871.00
2022-11-08T10:25:18.998Z,11789.00
2022-11-08T10:26:24.197Z,11704.00
2022-11-08T10:27:19.206Z,11820.00
2022-11-08T10:28:18.978Z,12021.00
2022-11-08T10:29:19.614Z,12050.00
2022-11-08T10:30:18.986Z,12416.00
2022-11-08T10:31:18.889Z,12395.00
2022-11-08T10:32:18.910Z,12507.00
2022-11-08T10:33:19.144Z,12621.00
2022-11-08T10:34:18.950Z,12787.00
2022-11-08T10:35:18.851Z,13058.00
2022-11-08T10:36:18.964Z,13413.00
2022-11-08T10:37:18.831Z,13551.00
2022-11-08T10:38:18.873Z,13742.00
2022-11-08T10:39:18.804Z,13800.00
2022-11-08T10:40:18.923Z,15325.00
2022-11-08T10:41:18.787Z,13894.00
2022-11-08T10:42:18.797Z,13521.00
2022-11-08T10:43:18.981Z,13766.00
2022-11-08T10:44:18.742Z,13585.00
2022-11-08T10:45:18.984Z,13437.00
2022-11-08T10:46:18.815Z,12934.00
2022-11-08T10:47:20.572Z,13409.00
2022-11-08T10:48:45.052Z,12946.00
2022-11-08T10:49:33.585Z,12559.00
2022-11-08T10:50:22.764Z,12507.00
2022-11-08T10:51:18.641Z,12516.00
2022-11-08T10:52:18.631Z,12532.00
2022-11-08T10:53:19.041Z,12618.00
2022-11-08T10:54:22.858Z,12818.00
2022-11-08T10:55:18.688Z,12480.00
2022-11-08T10:56:37.678Z,12257.00
2022-11-08T10:57:21.193Z,12139.00
2022-11-08T10:59:30.480Z,12136.00
2022-11-08T11:00:40.823Z,12055.00
2022-11-08T11:01:52.058Z,12163.00
2022-11-08T11:02:31.155Z,12320.00
2022-11-08T11:08:19.551Z,11400.00
2022-11-08T11:08:24.785Z,11735.00
2022-11-08T11:10:08.046Z,11128.00
2022-11-08T11:10:28.217Z,10820.00
2022-11-08T11:11:49.806Z,10730.00
2022-11-08T11:14:27.857Z,10789.00
2022-11-08T11:14:32.785Z,10755.00
2022-11-08T11:15:56.398Z,11390.00
2022-11-08T11:16:34.666Z,11558.00
2022-11-08T11:17:35.584Z,11771.00
2022-11-08T11:18:32.736Z,11979.00
2022-11-08T11:19:32.710Z,12169.00
2022-11-08T11:20:32.710Z,12367.00
2022-11-08T11:21:32.903Z,12466.00
2022-11-08T11:22:32.741Z,12643.00
2022-11-08T11:23:32.683Z,12796.00
2022-11-08T11:24:32.849Z,12927.00
2022-11-08T11:25:56.619Z,13096.00
2022-11-08T11:26:33.556Z,13152.00
2022-11-08T11:27:32.616Z,13052.00
2022-11-08T11:28:32.646Z,13098.00
2022-11-08T11:29:32.618Z,13385.00
2022-11-08T11:30:32.584Z,13713.00
2022-11-08T11:31:33.109Z,14545.00
2022-11-08T11:32:33.210Z,15085.00
2022-11-08T11:33:37.927Z,15412.00
2022-11-08T11:35:11.617Z,16507.00
2022-11-08T11:35:39.850Z,18615.00
2022-11-08T11:36:35.139Z,18954.00
2022-11-08T11:37:32.641Z,18426.00
2022-11-08T11:38:56.265Z,17475.00
2022-11-08T11:39:32.480Z,17242.00
2022-11-08T11:40:32.479Z,20283.00
2022-11-08T11:41:57.231Z,24792.00
2022-11-08T11:42:45.736Z,27238.00
2022-11-08T11:43:32.681Z,22615.00
2022-11-08T11:44:32.413Z,22412.00
2022-11-08T11:45:32.395Z,21394.00
2022-11-08T11:46:35.201Z,23238.00
2022-11-08T11:47:32.364Z,20483.00
2022-11-08T11:48:32.348Z,16485.00
2022-11-08T11:49:33.844Z,18839.00
2022-11-08T11:50:32.871Z,18403.00
2022-11-08T11:51:32.607Z,27136.00
2022-11-08T11:52:32.305Z,25432.00
2022-11-08T11:53:32.469Z,22964.00
2022-11-08T11:54:32.262Z,19836.00
2022-11-08T11:55:32.249Z,20717.00
2022-11-08T11:56:32.322Z,18108.00
2022-11-08T11:57:32.215Z,20558.00
2022-11-08T11:58:32.235Z,20502.00
2022-11-08T11:59:32.241Z,18991.00
2022-11-08T12:00:32.194Z,20153.00
2022-11-08T12:01:32.196Z,13510.00
2022-11-08T12:02:32.237Z,23253.00
2022-11-08T12:03:32.137Z,30441.00
2022-11-08T12:04:32.148Z,25396.00
2022-11-08T12:05:32.153Z,19752.00
2022-11-08T12:06:32.167Z,19702.00
2022-11-08T12:07:32.096Z,16542.00
2022-11-08T12:08:32.076Z,22523.00
2022-11-08T12:09:32.077Z,25148.00
2022-11-08T12:10:32.114Z,20201.00
2022-11-08T12:11:32.057Z,17226.00
2022-11-08T12:12:32.043Z,23993.00
2022-11-08T12:13:32.332Z,25391.00
2022-11-08T12:14:32.059Z,18322.00
2022-11-08T12:15:32.008Z,16070.00
2022-11-08T12:16:31.997Z,18586.00
2022-11-08T12:17:31.968Z,14603.00
2022-11-08T12:18:42.796Z,20733.00
2022-11-08T12:19:32.727Z,25045.00
2022-11-08T12:20:32.529Z,25726.00
2022-11-08T12:21:32.086Z,30626.00
2022-11-08T12:22:31.923Z,25077.00
2022-11-08T12:23:31.974Z,11887.00
2022-11-08T12:24:31.985Z,26998.00
2022-11-08T12:25:31.878Z,17287.00
2022-11-08T12:26:31.857Z,12754.00
2022-11-08T12:27:31.829Z,21103.00
2022-11-08T12:28:31.853Z,23448.00
2022-11-08T12:29:31.815Z,28504.00
2022-11-08T12:30:31.791Z,27091.00
2022-11-08T12:31:31.789Z,27311.00
2022-11-08T12:32:31.822Z,30262.00
2022-11-08T12:33:31.833Z,28069.00
2022-11-08T12:34:31.802Z,12702.00
2022-11-08T12:35:31.748Z,30190.00
2022-11-08T12:36:31.829Z,29698.00
2022-11-08T12:37:31.725Z,23179.00
2022-11-08T12:38:31.695Z,17064.00
2022-11-08T12:39:31.682Z,14627.00
2022-11-08T12:40:31.696Z,16148.00
2022-11-08T12:41:31.690Z,14861.00
2022-11-08T12:42:31.675Z,16824.00